createdAt,value
2023-02-16T00:01:15.473Z,17.30
2023-02-16T00:03:41.851Z,16.90
2023-02-16T00:06:14.173Z,20.53
2023-02-16T00:08:40.890Z,19.70
2023-02-16T00:11:31.923Z,16.80
2023-02-16T00:13:58.236Z,18.37
2023-02-16T00:16:24.881Z,18.40
2023-02-16T00:18:51.984Z,20.87
2023-02-16T00:21:18.913Z,21.40
2023-02-16T00:23:45.648Z,18.10
2023-02-16T00:26:19.876Z,21.63
2023-02-16T00:28:46.376Z,21.67
2023-02-16T00:31:17.655Z,20.20
2023-02-16T00:33:44.470Z,21.33
2023-02-16T00:36:10.795Z,18.63
2023-02-16T00:38:37.467Z,18.67
2023-02-16T00:41:04.125Z,19.87
2023-02-16T00:43:30.751Z,20.93
2023-02-16T00:45:57.250Z,20.83
2023-02-16T00:48:24.510Z,19.67
2023-02-16T00:50:50.928Z,19.93
2023-02-16T00:53:17.316Z,19.73
2023-02-16T00:55:44.027Z,20.33
2023-02-16T00:58:22.091Z,19.83
2023-02-16T01:00:53.492Z,21.40
2023-02-16T01:03:22.340Z,23.63
2023-02-16T01:05:48.714Z,24.30
2023-02-16T01:08:34.800Z,21.80
2023-02-16T01:11:09.884Z,21.03
2023-02-16T01:13:44.548Z,18.38
2023-02-16T01:16:12.377Z,24.17
2023-02-16T01:18:38.812Z,23.30
2023-02-16T01:21:05.439Z,22.30
2023-02-16T01:23:31.927Z,23.77
2023-02-16T01:25:58.274Z,24.23
2023-02-16T01:28:25.928Z,23.00
2023-02-16T01:30:52.994Z,21.37
2023-02-16T01:33:19.881Z,21.63
2023-02-16T01:35:46.610Z,21.63
2023-02-16T01:38:20.648Z,23.83
2023-02-16T01:41:10.171Z,22.70
2023-02-16T01:43:39.277Z,19.73
2023-02-16T01:46:11.925Z,23.40
2023-02-16T01:48:38.333Z,23.47
2023-02-16T01:51:06.994Z,23.33
2023-02-16T01:53:36.984Z,21.57
2023-02-16T01:56:05.959Z,24.07
2023-02-16T01:58:47.070Z,19.73
2023-02-16T02:01:39.804Z,24.13
2023-02-16T02:04:45.400Z,19.13
2023-02-16T02:07:15.184Z,20.33
2023-02-16T02:09:56.686Z,21.07
2023-02-16T02:12:23.080Z,19.57
2023-02-16T02:14:49.432Z,23.57
2023-02-16T02:17:18.022Z,25.83
2023-02-16T02:20:02.954Z,23.47
2023-02-16T02:23:01.986Z,22.85
2023-02-16T02:25:31.056Z,20.97
2023-02-16T02:28:05.198Z,21.13
2023-02-16T02:31:10.298Z,23.87
2023-02-16T02:33:46.953Z,20.23
2023-02-16T02:36:20.072Z,21.13
2023-02-16T02:38:46.347Z,22.20
2023-02-16T02:41:20.283Z,25.63
2023-02-16T02:43:52.745Z,22.23
2023-02-16T02:46:31.732Z,23.90
2023-02-16T02:48:58.170Z,22.63
2023-02-16T02:51:30.538Z,20.20
2023-02-16T02:54:21.692Z,20.33
2023-02-16T02:57:10.414Z,22.63
2023-02-16T02:59:57.050Z,22.70
2023-02-16T03:02:24.301Z,21.77
2023-02-16T03:04:51.897Z,21.50
2023-02-16T03:07:18.918Z,22.70
2023-02-16T03:09:45.319Z,20.90
2023-02-16T03:12:31.528Z,22.43
2023-02-16T03:14:59.604Z,18.90
2023-02-16T03:17:48.273Z,22.13
2023-02-16T03:20:34.079Z,20.20
2023-02-16T03:23:20.053Z,22.23
2023-02-16T03:26:05.162Z,21.50
2023-02-16T03:28:52.079Z,21.77
2023-02-16T03:31:20.760Z,19.93
2023-02-16T03:33:47.867Z,22.33
2023-02-16T03:36:14.345Z,19.13
2023-02-16T03:38:40.836Z,23.40
2023-02-16T03:41:07.174Z,21.57
2023-02-16T03:43:33.589Z,27.27
2023-02-16T03:46:00.133Z,24.07
2023-02-16T03:48:26.550Z,24.70
2023-02-16T03:50:52.857Z,22.20
2023-02-16T03:53:19.271Z,28.27
2023-02-16T03:55:46.834Z,24.47
2023-02-16T03:58:14.499Z,26.43
2023-02-16T04:00:41.269Z,23.97
2023-02-16T04:03:08.953Z,26.00
2023-02-16T04:05:35.353Z,27.27
2023-02-16T04:08:01.721Z,22.53
2023-02-16T04:10:28.234Z,23.00
2023-02-16T04:12:54.578Z,22.17
2023-02-16T04:15:22.517Z,24.23
2023-02-16T04:17:49.363Z,27.20
2023-02-16T04:20:20.001Z,26.63
2023-02-16T04:22:46.755Z,22.77
2023-02-16T04:25:13.769Z,24.47
2023-02-16T04:27:41.064Z,24.57
2023-02-16T04:30:08.641Z,24.87
2023-02-16T04:32:35.015Z,25.50
2023-02-16T04:35:01.406Z,20.80
2023-02-16T04:37:27.893Z,24.93
2023-02-16T04:39:54.249Z,25.67
2023-02-16T04:42:20.635Z,26.90
2023-02-16T04:44:46.944Z,27.20
2023-02-16T04:47:13.518Z,24.77
2023-02-16T04:49:39.879Z,24.40
2023-02-16T04:52:06.265Z,26.60
2023-02-16T04:54:32.965Z,25.00
2023-02-16T04:56:59.704Z,26.37
2023-02-16T04:59:26.028Z,25.53
2023-02-16T05:01:53.349Z,21.93
2023-02-16T05:04:19.813Z,25.90
2023-02-16T05:06:46.140Z,26.50
2023-02-16T05:09:12.527Z,25.27
2023-02-16T05:11:57.460Z,26.97
2023-02-16T05:14:43.306Z,22.42
2023-02-16T05:17:10.874Z,25.27
2023-02-16T05:19:37.272Z,26.50
2023-02-16T05:22:03.873Z,25.83
2023-02-16T05:24:30.257Z,26.37
2023-02-16T05:26:56.548Z,26.17
2023-02-16T05:29:22.931Z,28.40
2023-02-16T05:31:49.654Z,23.73
2023-02-16T05:34:16.122Z,25.90
2023-02-16T05:36:42.507Z,25.13
2023-02-16T05:39:08.820Z,26.47
2023-02-16T05:41:35.438Z,27.80
2023-02-16T05:44:02.908Z,25.57
2023-02-16T05:46:31.895Z,30.53
2023-02-16T05:48:58.738Z,28.60
2023-02-16T05:51:25.229Z,24.33
2023-02-16T05:53:51.541Z,25.60
2023-02-16T05:56:18.554Z,25.60
2023-02-16T05:58:44.919Z,25.97
2023-02-16T06:01:11.826Z,25.40
2023-02-16T06:03:38.256Z,23.93
2023-02-16T06:06:05.060Z,25.10
2023-02-16T06:08:31.892Z,23.77
2023-02-16T06:10:58.623Z,25.93
2023-02-16T06:13:25.158Z,28.03
2023-02-16T06:15:52.599Z,23.77
2023-02-16T06:18:19.193Z,26.33
2023-02-16T06:20:45.716Z,26.83
2023-02-16T06:23:13.102Z,26.97
2023-02-16T06:25:43.294Z,27.17
2023-02-16T06:28:10.033Z,27.63
2023-02-16T06:30:36.778Z,25.23
2023-02-16T06:33:03.607Z,15.80
2023-02-16T06:35:29.932Z,14.77
2023-02-16T06:37:56.310Z,14.17
2023-02-16T06:40:22.623Z,15.77
2023-02-16T06:42:48.920Z,13.80
2023-02-16T06:45:15.221Z,14.13
2023-02-16T06:47:41.558Z,13.77
2023-02-16T06:50:09.781Z,12.80
2023-02-16T06:52:36.562Z,14.00
2023-02-16T06:55:03.128Z,13.93
2023-02-16T06:57:29.598Z,14.03
2023-02-16T06:59:56.435Z,24.57
2023-02-16T07:02:22.813Z,27.83
2023-02-16T07:04:49.176Z,24.70
2023-02-16T07:07:15.485Z,24.30
2023-02-16T07:09:41.897Z,25.37
2023-02-16T07:12:08.256Z,26.63
2023-02-16T07:14:34.593Z,25.13
2023-02-16T07:17:04.208Z,26.07
2023-02-16T07:19:33.349Z,27.10
2023-02-16T07:22:00.140Z,24.23
2023-02-16T07:24:26.516Z,26.07
2023-02-16T07:26:53.010Z,25.93
2023-02-16T07:29:19.398Z,25.60
2023-02-16T07:31:45.872Z,25.77
2023-02-16T07:34:12.252Z,24.60
2023-02-16T07:36:38.635Z,23.47
2023-02-16T07:39:04.984Z,23.77
2023-02-16T07:41:31.329Z,23.47
2023-02-16T07:43:57.652Z,27.70
2023-02-16T07:46:24.243Z,26.70
2023-02-16T07:48:50.946Z,25.97
2023-02-16T07:51:21.119Z,25.93
2023-02-16T07:53:47.409Z,25.27
2023-02-16T07:56:19.218Z,24.40
2023-02-16T07:58:47.313Z,25.17
2023-02-16T08:01:17.507Z,24.97
2023-02-16T08:03:43.886Z,26.63
2023-02-16T08:06:10.231Z,23.67
2023-02-16T08:08:37.098Z,23.20
2023-02-16T08:11:13.645Z,23.17
2023-02-16T08:13:40.344Z,23.50
2023-02-16T08:16:09.888Z,24.90
2023-02-16T08:18:36.448Z,24.30
2023-02-16T08:21:13.918Z,25.30
2023-02-16T08:23:42.043Z,23.47
2023-02-16T08:26:09.867Z,25.40
2023-02-16T08:28:37.935Z,24.87
2023-02-16T08:31:05.103Z,21.63
2023-02-16T08:33:33.173Z,26.47
2023-02-16T08:35:59.626Z,23.13
2023-02-16T08:38:25.924Z,24.27
2023-02-16T08:40:52.251Z,23.30
2023-02-16T08:43:18.552Z,22.83
2023-02-16T08:45:48.352Z,23.77
2023-02-16T08:48:15.048Z,25.30
2023-02-16T08:50:53.445Z,23.17
2023-02-16T08:53:23.407Z,27.07
2023-02-16T08:55:56.521Z,22.80
2023-02-16T08:58:22.979Z,25.07
2023-02-16T09:00:49.755Z,22.87
2023-02-16T09:03:18.966Z,23.10
2023-02-16T09:05:49.110Z,22.77
2023-02-16T09:08:15.851Z,22.10
2023-02-16T09:10:42.816Z,23.77
2023-02-16T09:13:14.973Z,25.43
2023-02-16T09:15:43.158Z,24.47
2023-02-16T09:18:09.926Z,23.60
2023-02-16T09:20:37.250Z,25.23
2023-02-16T09:23:04.072Z,24.07
2023-02-16T09:25:30.419Z,24.77
2023-02-16T09:27:56.875Z,24.37
2023-02-16T09:30:24.006Z,23.33
2023-02-16T09:32:50.789Z,25.00
2023-02-16T09:35:17.192Z,25.87
2023-02-16T09:37:43.497Z,25.10
2023-02-16T09:40:13.845Z,23.13
2023-02-16T09:43:02.828Z,23.57
2023-02-16T09:45:30.604Z,24.47
2023-02-16T09:47:59.238Z,22.50
2023-02-16T09:50:52.163Z,24.97
2023-02-16T09:53:22.580Z,22.03
2023-02-16T09:55:54.868Z,25.00
2023-02-16T09:58:24.051Z,22.83
2023-02-16T10:00:50.873Z,23.33
2023-02-16T10:03:41.352Z,22.67
2023-02-16T10:06:17.447Z,22.37
2023-02-16T10:08:45.393Z,24.50
2023-02-16T10:11:35.358Z,26.37
2023-02-16T10:14:20.578Z,23.67
2023-02-16T10:17:10.338Z,24.00
2023-02-16T10:19:42.640Z,22.27
2023-02-16T10:22:14.250Z,23.97
2023-02-16T10:25:01.705Z,24.37
2023-02-16T10:27:34.891Z,24.37
2023-02-16T10:30:01.432Z,25.67
2023-02-16T10:32:37.270Z,25.53
2023-02-16T10:35:19.390Z,24.33
2023-02-16T10:37:56.265Z,26.77
2023-02-16T10:40:41.395Z,23.50
2023-02-16T10:43:17.043Z,25.33
2023-02-16T10:45:49.511Z,25.87
2023-02-16T10:48:19.515Z,28.27
2023-02-16T10:50:58.726Z,26.27
2023-02-16T10:53:31.115Z,26.00
2023-02-16T10:55:57.987Z,27.73
2023-02-16T10:58:26.543Z,26.73
2023-02-16T11:01:11.852Z,27.63
2023-02-16T11:03:44.734Z,26.05
2023-02-16T11:06:22.844Z,26.47
2023-02-16T11:08:50.415Z,27.67
2023-02-16T11:11:17.230Z,26.00
2023-02-16T11:13:47.214Z,26.87
2023-02-16T11:16:19.364Z,26.47
2023-02-16T11:18:49.624Z,26.13
2023-02-16T11:21:16.681Z,26.17
2023-02-16T11:23:43.517Z,27.33
2023-02-16T11:26:10.120Z,27.07
2023-02-16T11:28:38.968Z,26.97
2023-02-16T11:31:05.634Z,27.00
2023-02-16T11:33:32.704Z,26.20
2023-02-16T11:35:59.146Z,27.67
2023-02-16T11:38:30.631Z,25.00
2023-02-16T11:40:58.185Z,27.07
2023-02-16T11:43:26.971Z,29.57
2023-02-16T11:46:05.594Z,27.20
2023-02-16T11:48:32.830Z,27.27
2023-02-16T11:51:03.982Z,27.83
2023-02-16T11:53:34.757Z,28.37
2023-02-16T11:56:20.472Z,28.47
2023-02-16T12:01:39.404Z,25.77
2023-02-16T12:04:06.355Z,27.47
2023-02-16T12:06:44.924Z,27.93
2023-02-16T12:09:11.227Z,28.00
2023-02-16T12:11:48.545Z,29.07
2023-02-16T12:14:14.843Z,30.23
2023-02-16T12:16:47.161Z,28.87
2023-02-16T12:19:27.041Z,27.80
2023-02-16T12:22:09.085Z,32.47
2023-02-16T12:24:47.162Z,28.33
2023-02-16T12:27:16.805Z,26.83
2023-02-16T12:30:00.797Z,29.57
2023-02-16T12:32:34.324Z,28.73
2023-02-16T12:35:05.746Z,28.27
2023-02-16T12:37:35.134Z,26.77
2023-02-16T12:40:20.281Z,28.63
2023-02-16T12:42:58.508Z,29.08
2023-02-16T12:45:27.779Z,26.02
2023-02-16T12:47:59.746Z,24.90
2023-02-16T12:50:30.871Z,27.33
2023-02-16T12:53:01.355Z,24.85
2023-02-16T12:55:38.511Z,25.42
2023-02-16T12:58:07.975Z,26.13
2023-02-16T13:00:48.487Z,25.08
2023-02-16T13:03:14.863Z,26.60
2023-02-16T13:05:41.690Z,32.45
2023-02-16T13:08:18.447Z,26.35
2023-02-16T13:10:47.721Z,32.22
2023-02-16T13:13:17.678Z,29.85
2023-02-16T13:16:00.943Z,22.30
2023-02-16T13:18:30.416Z,22.35
2023-02-16T13:21:00.723Z,23.40
2023-02-16T13:23:37.714Z,22.75
2023-02-16T13:26:04.542Z,25.08
2023-02-16T13:28:43.518Z,25.90
2023-02-16T13:31:15.694Z,24.55
2023-02-16T13:33:51.474Z,21.10
2023-02-16T13:36:27.316Z,23.52
2023-02-16T13:39:12.662Z,23.33
2023-02-16T13:41:52.128Z,23.23
2023-02-16T13:44:24.366Z,22.17
2023-02-16T13:46:52.760Z,21.40
2023-02-16T13:49:42.360Z,22.30
2023-02-16T13:52:11.860Z,23.13
2023-02-16T13:54:40.087Z,21.25
2023-02-16T13:57:11.697Z,21.30
2023-02-16T13:59:38.187Z,22.95
2023-02-16T14:02:11.046Z,21.13
2023-02-16T14:04:37.465Z,21.38
2023-02-16T14:07:03.831Z,19.05
2023-02-16T14:09:33.438Z,21.77
2023-02-16T14:12:02.153Z,20.70
2023-02-16T14:14:31.392Z,19.15
2023-02-16T14:17:23.971Z,19.00
2023-02-16T14:20:01.065Z,21.27
2023-02-16T14:22:47.513Z,18.17
2023-02-16T14:25:19.671Z,29.83
2023-02-16T14:27:48.555Z,18.63
2023-02-16T14:30:27.274Z,22.00
2023-02-16T14:32:57.615Z,20.40
2023-02-16T14:35:29.280Z,21.48
2023-02-16T14:37:57.701Z,24.65
2023-02-16T14:40:44.276Z,23.88
2023-02-16T14:43:29.425Z,20.48
2023-02-16T14:46:18.349Z,18.70
2023-02-16T14:49:03.238Z,18.73
2023-02-16T14:51:29.552Z,19.52
2023-02-16T14:53:55.852Z,19.50
2023-02-16T14:56:37.539Z,17.77
2023-02-16T14:59:06.683Z,18.85
2023-02-16T15:01:43.365Z,20.15
2023-02-16T15:04:11.293Z,17.20
2023-02-16T15:06:46.240Z,21.30
2023-02-16T15:09:24.591Z,18.35
2023-02-16T15:12:10.900Z,20.08
2023-02-16T15:14:45.181Z,22.08
2023-02-16T15:17:18.873Z,21.23
2023-02-16T15:19:45.308Z,19.17
2023-02-16T15:22:19.611Z,17.85
2023-02-16T15:24:54.614Z,18.47
2023-02-16T15:27:22.044Z,16.63
2023-02-16T15:30:01.847Z,19.25
2023-02-16T15:32:28.326Z,16.45
2023-02-16T15:34:55.172Z,18.25
2023-02-16T15:37:29.634Z,17.65
2023-02-16T15:40:23.132Z,14.80
2023-02-16T15:42:44.467Z,17.30
2023-02-16T15:45:27.074Z,50.50
2023-02-16T15:47:53.627Z,16.83
2023-02-16T15:50:24.123Z,26.05
2023-02-16T15:52:50.437Z,19.98
2023-02-16T15:55:17.229Z,18.83
2023-02-16T15:57:43.746Z,17.38
2023-02-16T16:00:15.820Z,16.30
2023-02-16T16:02:47.538Z,15.90
2023-02-16T16:05:42.149Z,16.92
2023-02-16T16:08:12.954Z,21.52
2023-02-16T16:10:41.893Z,17.83
2023-02-16T16:13:24.017Z,18.63
2023-02-16T16:15:51.195Z,20.05
2023-02-16T16:18:37.402Z,18.88
2023-02-16T16:21:04.282Z,17.63
2023-02-16T16:23:30.969Z,17.38
2023-02-16T16:25:58.438Z,17.60
2023-02-16T16:28:24.775Z,17.70
2023-02-16T16:31:05.665Z,15.98
2023-02-16T16:33:51.633Z,36.72
2023-02-16T16:38:45.887Z,16.70
2023-02-16T16:41:27.392Z,17.45
2023-02-16T16:43:54.882Z,22.95
2023-02-16T16:46:26.200Z,18.15
2023-02-16T16:48:58.186Z,17.88
2023-02-16T16:51:27.508Z,20.20
2023-02-16T16:53:55.542Z,15.88
2023-02-16T16:56:22.069Z,13.43
2023-02-16T16:58:50.346Z,14.32
2023-02-16T17:01:17.542Z,17.80
2023-02-16T17:03:44.050Z,17.23
2023-02-16T17:06:10.725Z,20.80
2023-02-16T17:08:37.433Z,18.23
2023-02-16T17:11:04.116Z,17.80
2023-02-16T17:13:30.801Z,18.05
2023-02-16T17:15:58.990Z,16.75
2023-02-16T17:18:25.443Z,15.20
2023-02-16T17:20:52.396Z,16.33
2023-02-16T17:23:19.854Z,17.08
2023-02-16T17:25:46.342Z,15.50
2023-02-16T17:28:14.126Z,15.32
2023-02-16T17:30:40.980Z,14.10
2023-02-16T17:33:08.116Z,16.35
2023-02-16T17:35:35.449Z,14.88
2023-02-16T17:38:06.668Z,15.07
2023-02-16T17:40:33.102Z,15.68
2023-02-16T17:42:59.430Z,14.70
2023-02-16T17:45:25.741Z,16.92
2023-02-16T17:47:52.925Z,16.35
2023-02-16T17:50:20.386Z,20.45
2023-02-16T17:52:46.710Z,14.70
2023-02-16T17:55:13.346Z,14.70
2023-02-16T17:57:39.693Z,16.10
2023-02-16T18:00:08.121Z,16.33
2023-02-16T18:02:34.572Z,16.65
2023-02-16T18:05:00.946Z,15.65
2023-02-16T18:07:27.460Z,15.82
2023-02-16T18:09:54.537Z,16.15
2023-02-16T18:12:20.937Z,13.82
2023-02-16T18:14:47.510Z,17.42
2023-02-16T18:17:13.901Z,15.70
2023-02-16T18:19:40.223Z,14.68
2023-02-16T18:22:06.566Z,21.88
2023-02-16T18:24:32.865Z,16.60
2023-02-16T18:26:59.155Z,14.52
2023-02-16T18:29:25.467Z,17.17
2023-02-16T18:31:51.886Z,16.02
2023-02-16T18:34:18.458Z,15.20
2023-02-16T18:36:44.801Z,27.08
2023-02-16T18:39:11.220Z,15.50
2023-02-16T18:41:37.743Z,28.92
2023-02-16T18:44:04.427Z,16.17
2023-02-16T18:46:30.915Z,13.43
2023-02-16T18:48:57.292Z,14.45
2023-02-16T18:51:25.929Z,15.80
2023-02-16T18:53:52.246Z,13.18
2023-02-16T18:56:18.582Z,15.13
2023-02-16T18:58:45.037Z,14.05
2023-02-16T19:01:25.199Z,14.02
2023-02-16T19:03:51.606Z,13.73
2023-02-16T19:06:17.913Z,15.35
2023-02-16T19:08:45.185Z,13.73
2023-02-16T19:11:11.540Z,13.40
2023-02-16T19:13:38.106Z,12.82
2023-02-16T19:16:04.951Z,13.60
2023-02-16T19:18:32.043Z,15.40
2023-02-16T19:20:58.470Z,16.15
2023-02-16T19:23:25.054Z,15.27
2023-02-16T19:25:51.369Z,16.35
2023-02-16T19:28:17.704Z,14.95
2023-02-16T19:30:44.081Z,15.90
2023-02-16T19:33:10.597Z,14.55
2023-02-16T19:35:36.901Z,15.70
2023-02-16T19:38:03.316Z,15.32
2023-02-16T19:40:29.660Z,14.85
2023-02-16T19:42:56.008Z,14.07
2023-02-16T19:45:22.345Z,15.23
2023-02-16T19:47:51.803Z,17.40
2023-02-16T19:50:18.332Z,14.35
2023-02-16T19:52:44.698Z,14.57
2023-02-16T19:55:11.636Z,16.08
2023-02-16T19:57:38.285Z,14.85
2023-02-16T20:00:05.897Z,16.90
2023-02-16T20:02:32.391Z,14.10
2023-02-16T20:04:58.706Z,15.82
2023-02-16T20:07:25.048Z,17.40
2023-02-16T20:09:51.376Z,16.60
2023-02-16T20:12:17.840Z,17.60
2023-02-16T20:14:44.209Z,14.05
2023-02-16T20:17:10.526Z,21.73
2023-02-16T20:19:36.816Z,14.80
2023-02-16T20:22:03.226Z,16.88
2023-02-16T20:24:29.605Z,17.13
2023-02-16T20:26:55.973Z,17.33
2023-02-16T20:29:22.418Z,16.40
2023-02-16T20:31:53.284Z,16.90
2023-02-16T20:34:19.894Z,16.13
2023-02-16T20:36:46.321Z,15.00
2023-02-16T20:39:12.658Z,17.50
2023-02-16T20:41:39.468Z,15.45
2023-02-16T20:44:05.841Z,17.27
2023-02-16T20:46:32.643Z,16.38
2023-02-16T20:48:59.273Z,15.85
2023-02-16T20:51:25.960Z,16.13
2023-02-16T20:53:52.346Z,13.52
2023-02-16T20:56:25.066Z,13.90
2023-02-16T20:58:52.651Z,14.27
2023-02-16T21:01:46.452Z,16.98
2023-02-16T21:04:13.483Z,19.02
2023-02-16T21:06:40.142Z,16.52
2023-02-16T21:09:07.579Z,15.07
2023-02-16T21:11:34.224Z,14.88
2023-02-16T21:14:02.178Z,16.75
2023-02-16T21:16:28.737Z,15.80
2023-02-16T21:18:55.270Z,16.75
2023-02-16T21:21:21.630Z,13.13
2023-02-16T21:23:49.455Z,15.10
2023-02-16T21:26:16.842Z,14.48
2023-02-16T21:28:43.158Z,13.48
2023-02-16T21:31:11.621Z,13.98
2023-02-16T21:33:38.459Z,15.80
2023-02-16T21:36:06.212Z,14.38
2023-02-16T21:38:34.480Z,14.00
2023-02-16T21:41:23.423Z,16.17
2023-02-16T21:43:53.253Z,15.10
2023-02-16T21:46:19.623Z,15.10
2023-02-16T21:48:49.701Z,15.27
2023-02-16T21:51:20.171Z,16.88
2023-02-16T21:53:47.149Z,15.73
2023-02-16T21:56:21.243Z,14.65
2023-02-16T21:58:47.668Z,15.20
2023-02-16T22:01:14.235Z,14.57
2023-02-16T22:03:40.720Z,15.00
2023-02-16T22:06:07.823Z,16.38
2023-02-16T22:08:35.130Z,16.75
2023-02-16T22:11:09.037Z,17.10
2023-02-16T22:13:35.864Z,18.88
2023-02-16T22:16:08.133Z,18.63
2023-02-16T22:18:34.505Z,18.65
2023-02-16T22:21:02.242Z,19.02
2023-02-16T22:23:28.686Z,16.17
2023-02-16T22:25:54.985Z,17.65
2023-02-16T22:28:21.320Z,18.75
2023-02-16T22:30:47.679Z,17.63
2023-02-16T22:33:13.983Z,19.73
2023-02-16T22:35:40.421Z,17.80
2023-02-16T22:38:06.722Z,17.98
2023-02-16T22:40:33.177Z,17.30
2023-02-16T22:42:59.534Z,20.85
2023-02-16T22:45:25.934Z,14.38
2023-02-16T22:47:52.236Z,19.23
2023-02-16T22:50:18.554Z,16.10
2023-02-16T22:52:44.954Z,16.60
2023-02-16T22:55:11.268Z,15.27
2023-02-16T22:57:38.122Z,14.27
2023-02-16T23:00:09.589Z,19.60
2023-02-16T23:02:37.603Z,14.95
2023-02-16T23:05:04.931Z,14.15
2023-02-16T23:07:34.910Z,16.85
2023-02-16T23:10:02.311Z,13.90
2023-02-16T23:12:28.629Z,14.70
2023-02-16T23:14:55.561Z,12.57
2023-02-16T23:17:21.865Z,12.27
2023-02-16T23:19:49.130Z,13.20
2023-02-16T23:22:15.505Z,14.32
2023-02-16T23:24:41.865Z,13.38
2023-02-16T23:27:08.178Z,13.02
2023-02-16T23:29:34.498Z,13.48
2023-02-16T23:32:00.877Z,16.58
2023-02-16T23:34:27.231Z,16.63
2023-02-16T23:36:53.614Z,15.77
2023-02-16T23:39:20.031Z,17.65
2023-02-16T23:41:46.413Z,16.73
2023-02-16T23:44:13.273Z,16.48
2023-02-16T23:46:39.743Z,15.60
2023-02-16T23:49:06.148Z,15.05
2023-02-16T23:51:32.567Z,14.90
2023-02-16T23:53:58.905Z,14.48
2023-02-16T23:56:26.304Z,13.35
2023-02-16T23:58:52.964Z,14.75
